D/T METAR WX W/DIR W/SPE G/SPE TEMP DEWP
18/04/19 16:50 EGYH 181550Z 07014KT CAVOK 12/09 Q1025 BLU ENE (70°) 16.1mph 12°C 9°C
18/04/19 15:50 EGYH 181450Z 06018KT CAVOK 12/09 Q1025 BLU ENE (60°) 20.7mph 12°C 9°C
18/04/19 14:50 EGYH 181350Z 06018KT CAVOK 14/10 Q1024 BLU ENE (60°) 20.7mph 14°C 10°C
18/04/19 13:50 EGYH 181250Z 06019KT CAVOK 14/10 Q1024 BLU ENE (60°) 21.9mph 14°C 10°C
18/04/19 12:50 EGYH 181150Z 06018KT CAVOK 13/09 Q1024 BLU ENE (60°) 20.7mph 13°C 9°C
18/04/19 10:50 EGYH 180950Z 06015KT 6000 HZ BKN250 13/09 Q1025 WHT HZ ENE (60°) 17.3mph 13°C 9°C
18/04/19 09:50 EGYH 180850Z 06015KT 5000 HZ SCT250 12/09 Q1025 WHT HZ ENE (60°) 17.3mph 12°C 9°C
18/04/19 08:50 EGYH 180750Z 05013KT 3500 BR BKN060 11/10 Q1025 YLO1 BR NE (50°) 15.0mph 11°C 10°C
17/04/19 15:50 EGYH 171450Z 07016KT 7000 HZ SCT050 BKN080 11/09 Q1020 WHT HZ ENE (70°) 18.4mph 11°C 9°C
17/04/19 14:50 EGYH 171350Z 07017KT 5000 HZ FEW035 SCT080 12/10 Q1020 WHT HZ ENE (70°) 19.6mph 12°C 10°C
17/04/19 13:50 EGYH 171250Z 06019KT 3000 HZ SCT080 13/10 Q1020 YLO1 HZ ENE (60°) 21.9mph 13°C 10°C
17/04/19 12:50 EGYH 171150Z 05012KT 3500 HZ SCT120 13/10 Q1020 YLO1 HZ NE (50°) 13.8mph 13°C 10°C
17/04/19 11:50 EGYH 171050Z 05017KT 6000 HZ SCT120 13/09 Q1020 WHT HZ NE (50°) 19.6mph 13°C 9°C
17/04/19 10:50 EGYH 170950Z 05013KT CAVOK 12/08 Q1020 BLU NE (50°) 15.0mph 12°C 8°C
17/04/19 09:50 EGYH 170850Z 04012 9000 HZ FEW120 SCT250 11/08 Q1020 BLU HZ NE (40°) 13.8mph 11°C 8°C
16/04/19 19:50 EGYH 161850Z 08020KT CAVOK 09/07 Q1018 BLU E (80°) 23.0mph 9°C 7°C
16/04/19 18:50 EGYH 161750Z 08021KT CAVOK 09/07 Q1017 BLU E (80°) 24.2mph 9°C 7°C
16/04/19 17:50 EGYH 161650Z 07020KT CAVOK 09/07 Q1017 BLU ENE (70°) 23.0mph 9°C 7°C
16/04/19 16:50 EGYH 161550Z 07018KT CAVOK 10/07 Q1016 BLU ENE (70°) 20.7mph 10°C 7°C
16/04/19 15:50 EGYH 161450Z 06021KT CAVOK 1007 Q1016 BLU ENE (60°) 24.2mph 0°C 0°C
16/04/19 14:50 EGYH 161350Z 07020KT CAVOK 10/07 Q1016 BLU ENE (70°) 23.0mph 10°C 7°C
16/04/19 13:50 EGYH 161250Z 07019KT CAVOK 11/08 Q1016 BLU ENE (70°) 21.9mph 11°C 8°C
16/04/19 12:50 EGYH 161150Z 07014KT CAVOK 12/08 Q1016 BLU ENE (70°) 16.1mph 12°C 8°C
16/04/19 11:50 EGYH 161050Z 07011KT CAVOK 13/08 Q1016 BLU ENE (70°) 12.7mph 13°C 8°C
16/04/19 10:50 EGYH 160950Z 08010KT CAVOK 12/07 Q1016 BLU E (80°) 11.5mph 12°C 7°C
16/04/19 09:50 EGYH 160850Z 08009KT CAVOK 12/07 Q1016 BLU E (80°) 10.4mph 12°C 7°C
16/04/19 08:50 EGYH 160750Z 07007KT CAVOK 12/07 Q1016 BLU ENE (70°) 8.1mph 12°C 7°C
15/04/19 14:50 EGYH 151350Z 13015KT CAVOK 13/05 Q1020 BLU SE (130°) 17.3mph 13°C 5°C
15/04/19 13:50 EGYH 151250Z 11017KT 9999 FEW040 12/04 Q1021 BLU ESE (110°) 19.6mph 12°C 4°C
15/04/19 12:50 EGYH 151150Z 13017KT 9999 FEW040 12/03 Q1022 BLU SE (130°) 19.6mph 12°C 3°C
15/04/19 11:50 EGYH 151050Z 13014KT 9999 FEW035 SCT250 12/04 Q1022 BLU SE (130°) 16.1mph 12°C 4°C
15/04/19 10:50 EGYH 150950Z 14019KT 9999 FEW025 SCT040 10/03 Q1023 BLU SE (140°) 21.9mph 10°C 3°C
15/04/19 09:50 EGYH 150850Z 13015KT 9999 FEW040 10/04 Q1024 BLU SE (130°) 17.3mph 10°C 4°C
15/04/19 08:50 EGYH 150750Z 13015KT CAVOK 08/05 Q1024 BLU SE (130°) 17.3mph 8°C 5°C
12/04/19 10:50 EGYH 120950Z 07015KT 9999 FEW030 09/02 Q1028 BLU ENE (70°) 17.3mph 9°C 2°C
12/04/19 09:50 EGYH 120850Z 07013KT 9999 FEW030 09/02 Q1028 BLU ENE (70°) 15.0mph 9°C 2°C
11/04/19 15:50 EGYH 111450Z 06017KT CAVOK 09/00 Q1027 BLU ENE (60°) 19.6mph 9°C 0°C
11/04/19 14:50 EGYH 111350Z 06015KT CAVOK 09/01 Q1027 BLU ENE (60°) 17.3mph 9°C 1°C
11/04/19 13:50 EGYH 111250Z 05014KT 9999 BKN045 09/01 Q1027 BLU NE (50°) 16.1mph 9°C 1°C
11/04/19 12:50 EGYH 111150Z 06012KT 9999 BKN040 09/01 Q1027 BLU ENE (60°) 13.8mph 9°C 1°C
11/04/19 11:50 EGYH 111050Z 07012KT 9999 BKN035 08/M00 Q1027 BLU ENE (70°) 13.8mph 8°C 0°C
11/04/19 10:50 EGYH 110950Z 09008KT 9999 BKN035 07/M01 Q1028 BLU E (90°) 9.2mph 7°C -1°C
11/04/19 09:50 EGYH 110850Z 10011KT 9999 SCT035 07/M01 Q1027 BLU E (100°) 12.7mph 7°C -1°C
11/04/19 08:50 EGYH 110750Z 09012KT 9999 FEW035 07/M01 Q1027 BLU E (90°) 13.8mph 7°C -1°C
10/04/19 15:50 EGYH 101450Z 08023KT 9999 FEW025 09/03 Q1022 BLU E (80°) 26.5mph 9°C 3°C
10/04/19 14:50 EGYH 101350Z 07016KT 9999 SCT025 BKN035 09/02 Q1022 BLU ENE (70°) 18.4mph 9°C 2°C
10/04/19 13:50 EGYH 101250Z 06018KT 9999 FEW030 10/02 Q1022 BLU ENE (60°) 20.7mph 10°C 2°C
10/04/19 12:50 EGYH 101150Z 07017KT 9999 FEW030 09/01 Q0122 BLU ENE (70°) 19.6mph 9°C 1°C
10/04/19 11:50 EGYH 101050Z 07017KT 9999 SCT030 09/01 Q1022 BLU ENE (70°) 19.6mph 9°C 1°C
10/04/19 10:50 EGYH 100950Z 07018KT 9999 BKN030 08/01 Q1021 BLU ENE (70°) 20.7mph 8°C 1°C
10/04/19 09:50 EGYH 100850Z 07018KT 9999 BKN030 08/02 Q1021 BLU ENE (70°) 20.7mph 8°C 2°C
10/04/19 08:50 EGYH 100750Z 09014KT 9999 BKN030 07/01 Q1021 BLU E (90°) 16.1mph 7°C 1°C
9/04/19 20:50 EGYH 091950Z 07022KT 9999 SCT030 07/04 Q1018 BLU ENE (70°) 25.3mph 7°C 4°C
9/04/19 19:50 EGYH 091850Z 07022KT 9999 FEW020 BKN035 07/04 Q1017 BLU ENE (70°) 25.3mph 7°C 4°C
9/04/19 18:50 EGYH 091750Z 07021KT 9999 FEW020 SCT035 07/04 Q1017 BLU ENE (70°) 24.2mph 7°C 4°C
9/04/19 17:50 EGYH 091650Z 06023KT SCT030 08/04 Q1017 BLU ENE (60°) 26.5mph 8°C 4°C
9/04/19 16:50 EGYH 091550Z 07023KT 9999 SCT030 09/04 Q1017 BLU ENE (70°) 26.5mph 9°C 4°C
9/04/19 15:50 EGYH 091450Z 07022KT 9999 SCT030 10/05 Q1017 BLU ENE (70°) 25.3mph 10°C 5°C
9/04/19 14:50 EGYH 091350Z 07024KT 9999 FEW020 SCT030 10/04 Q1017 BLU ENE (70°) 27.6mph 10°C 4°C
9/04/19 13:50 EGYH 091250Z 07024KT 9999 FEW020 SCT030 11/06 Q1016 BLU ENE (70°) 27.6mph 11°C 6°C
9/04/19 12:50 EGYH 091150Z 07024KT 9999 FEW020 BKN030 10/05 Q1017 BLU ENE (70°) 27.6mph 10°C 5°C
9/04/19 11:50 EGYH 091050Z 07022KT 9999 SCT020 BKN040 09/05 Q1017 WHT ENE (70°) 25.3mph 9°C 5°C
9/04/19 10:50 EGYH 090950Z 07022KT 9999 BKN020 09/05 Q1017 WHT ENE (70°) 25.3mph 9°C 5°C
9/04/19 09:50 EGYH 090850Z 07025KT 9999 BKN015 08/05 Q1016 WHT ENE (70°) 28.8mph 8°C 5°C
9/04/19 08:50 EGYH 090750Z 06022KT 9999 BKN015 08/06 Q1016 WHT ENE (60°) 25.3mph 8°C 6°C
8/04/19 15:50 EGYH 081450Z 05021KT 4000 HZ SKC 12/09 Q1011 GRN HZ NE (50°) 24.2mph 12°C 9°C
8/04/19 14:50 EGYH 081350Z 05018KT 3500 BR SKC 12/10 Q1011 YLO1 BR NE (50°) 20.7mph 12°C 10°C
8/04/19 13:50 EGYH 081250Z 05020KT 3500 BR SKC 12/10 Q1011 YLO1 BR NE (50°) 23.0mph 12°C 10°C
8/04/19 12:50 EGYH 081150Z 05021KT 3500 BR FEW040 12/10 Q1011 YLO1 BR NE (50°) 24.2mph 12°C 10°C
8/04/19 11:50 EGYH 081050Z 04019KT 3500 BR FEW300 12/09 Q1011 YLO1 BR NE (40°) 21.9mph 12°C 9°C
8/04/19 10:50 EGYH 080950Z 04018KT 3500 BR FEW300 11/10 Q1011 YLO1 BR NE (40°) 20.7mph 11°C 10°C
8/04/19 09:50 EGYH 080850Z 05018KT 3000 BR FEW300 10/09 Q1011 YLO1 BR NE (50°) 20.7mph 10°C 9°C
8/04/19 08:50 EGYH 080750Z 03014KT 2500 BR SKC 09/09 Q1011 YLO1 BR NNE (30°) 16.1mph 9°C 9°C
5/04/19 09:50 EGYH 050850Z 14019KT CAVOK 11/04 Q1004 BLU SE (140°) 21.9mph 11°C 4°C
5/04/19 08:50 EGYH 050750Z 13018KT CAVOK 09/05 Q1003 BLU SE (130°) 20.7mph 9°C 5°C
4/04/19 15:50 EGYH 041450Z 15024KT 9999 FEW045 BKN060 11/02 Q0995 BLU SSE (150°) 27.6mph 11°C 2°C
4/04/19 14:50 EGYH 041350Z 16024KT 9999 SCT040 11/02 Q0995 BLU SSE (160°) 27.6mph 11°C 2°C
4/04/19 13:50 EGYH 041250Z 15022KT 9999 SCT040 11/03 Q0995 BLU SSE (150°) 25.3mph 11°C 3°C
4/04/19 12:50 EGYH 041150Z 15025KT 9999 SCT035 10/03 Q0995 BLU SSE (150°) 28.8mph 10°C 3°C
4/04/19 11:50 EGYH 041050Z 16021KT 9999 SCT030 09/03 Q0995 BLU SSE (160°) 24.2mph 9°C 3°C
4/04/19 10:50 EGYH 040950Z 16017KT 9999 FEW025 08/03 Q0995 BLU SSE (160°) 19.6mph 8°C 3°C
4/04/19 09:50 EGYH 040850Z 15017KT 9999 FEW012 SCT030 06/03 Q0995 BLU SSE (150°) 19.6mph 6°C 3°C
4/04/19 08:50 EGYH 040750Z 13014KT CAVOK 05/04 Q0995 BLU SE (130°) 16.1mph 5°C 4°C
3/04/19 15:50 EGYH 031450Z 12009KT 9999 VCSH FEW020 BKN060 07/03 Q0997 BLU VCSH ESE (120°) 10.4mph 7°C 3°C
3/04/19 14:50 EGYH 031350Z 12009KT 9999 SCT025 BKN060 07/04 Q0997 BLU ESE (120°) 10.4mph 7°C 4°C
3/04/19 13:50 EGYH 031250Z 19006KT 9999 FEW025 SCT050 09/01 Q0998 BLU S (190°) 6.9mph 9°C 1°C
3/04/19 12:50 EGYH 031150Z 24005KT 9999 FEW025 SCT050 09/03 Q0998 BLU WSW (240°) 5.8mph 9°C 3°C
3/04/19 11:50 EGYH 031050Z 21001KT 8000 HZ SCT020 07/03 Q0999 WHT HZ SSW (210°) 1.2mph 7°C 3°C
3/04/19 10:50 EGYH 030950Z 23001KT 9999 BKN015 05/04 Q0999 WHT SW (230°) 1.2mph 5°C 4°C
3/04/19 09:50 EGYH 030850Z 30004KT 9999 BKN012 04/03 Q0999 GRN WNW (300°) 4.6mph 4°C 3°C
3/04/19 08:50 EGYH 030750Z 28003KT 9999 FEW015 BKN070 03/03 Q0999 BLU W (280°) 3.5mph 3°C 3°C
2/04/19 17:50 EGYH 021650Z 29005KT CAVOK 08/03 Q1000 BLU WNW (290°) 5.8mph 8°C 3°C
2/04/19 16:50 EGYH 021550Z 31006KT CAVOK 07/03 Q1000 BLU NW (310°) 6.9mph 7°C 3°C
2/04/19 15:50 EGYH 021450Z 31013KT 9999 -RA SCT015 BKN080 06/05 Q1001 WHT -RA NW (310°) 15.0mph 6°C 5°C
2/04/19 14:50 EGYH 021350Z 33016KT 8000 RA SCT015 BKN030 05/04 Q1001 WHT RA NNW (330°) 18.4mph 5°C 4°C
2/04/19 13:50 EGYH 021250Z 27006KT 8000 RA SCT010 BKN030 06/05 Q1001 GRN RA W (270°) 6.9mph 6°C 5°C
2/04/19 12:50 EGYH 021150Z 30007KT 7000 RA SCT010 BKN025 06/04 Q1001 GRN RA WNW (300°) 8.1mph 6°C 4°C
2/04/19 11:50 EGYH 021050Z 27006KT 9999 -RA BKN010 06/05 Q1002 GRN -RA W (270°) 6.9mph 6°C 5°C
2/04/19 10:50 EGYH 020950Z 29006KT 9999 -RA FEW020 SCT040 BKN060 06/05 Q1002 BLU -RA WNW (290°) 6.9mph 6°C 5°C
2/04/19 09:50 EGYH 020850Z 31007KT 9999 -RA FEW040 BKN060 06/04 Q1002 BLU -RA NW (310°) 8.1mph 6°C 4°C
2/04/19 08:50 EGYH 020750Z 26008KT CAVOK 04/04 Q1003 BLU W (260°) 9.2mph 4°C 4°C
1/04/19 15:50 EGYH 011450Z 07015KT CAVOK 10/05 Q1018 BLU ENE (70°) 17.3mph 10°C 5°C
1/04/19 14:50 EGYH 011350Z 07014KT 9999 FEW035 10/04 Q1019 BLU ENE (70°) 16.1mph 10°C 4°C
1/04/19 13:50 EGYH 011250Z 10010KT 9999 FEW030 10/03 Q1021 BLU E (100°) 11.5mph 10°C 3°C
1/04/19 12:50 EGYH 011150Z 08008KT 9999 FEW025 10/03 Q1022 BLU E (80°) 9.2mph 10°C 3°C
1/04/19 11:50 EGYH 011050Z 09010KT 9999 FEW025 10/03 Q1023 BLU E (90°) 11.5mph 10°C 3°C
1/04/19 10:50 EGYH 010950Z 10011KT 9999 FEW030 09/03 Q1024 BLU E (100°) 12.7mph 9°C 3°C
1/04/19 09:50 EGYH 010850Z 12013KT CAVOK 08/03 Q1024 BLU ESE (120°) 15.0mph 8°C 3°C
1/04/19 08:50 EGYH 010750Z 11013KT CAVOK 07/02 Q1025 BLU ESE (110°) 15.0mph 7°C 2°C
29/03/19 10:50 EGYH 291050Z 25011KT CAVOK 14/08 Q1029 BLU WSW (250°) 12.7mph 14°C 8°C
29/03/19 09:50 EGYH 290950Z 23010KT CAVOK 11/07 Q1030 BLU SW (230°) 11.5mph 11°C 7°C
29/03/19 08:50 EGYH 290850Z 22010KT CAVOK 06/05 Q1030 BLU SW (220°) 11.5mph 6°C 5°C
28/03/19 15:50 EGYH 281550Z 21009KT 9999 FEW040 14/05 Q1033 BLU SSW (210°) 10.4mph 14°C 5°C
28/03/19 14:50 EGYH 281450Z 23010KT 9999 FEW040 14/04 Q1034 BLU SW (230°) 11.5mph 14°C 4°C
28/03/19 13:50 EGYH 281350Z 22008KT 9999 FEW040 15/06 Q1035 BLU SW (220°) 9.2mph 15°C 6°C
28/03/19 12:50 EGYH 281250Z 21008KT 9999 FEW040 14/04 Q1035 BLU SSW (210°) 9.2mph 14°C 4°C
28/03/19 11:50 EGYH 281150Z 19007KT 9999 FEW045 14/07 Q1036 BLU S (190°) 8.1mph 14°C 7°C
28/03/19 10:50 EGYH 281050Z 25003KT 9999 BKN045 11/06 Q1036 BLU WSW (250°) 3.5mph 11°C 6°C
28/03/19 09:50 EGYH 280950Z 29004KT 9999 BKN045 09/06 Q1037 BLU WNW (290°) 4.6mph 9°C 6°C
28/03/19 08:50 EGYH 280850Z 28005KT 9999 BKN045 08/05 Q1037 BLU W (280°) 5.8mph 8°C 5°C
27/03/19 15:50 EGYH 271550Z 33007KT 9999 SCT025 BKN045 11/04 Q1035 BLU NNW (330°) 8.1mph 11°C 4°C
27/03/19 14:50 EGYH 271450Z 30009KT 9999 SCT025 BKN045 11/05 Q1035 BLU WNW (300°) 10.4mph 11°C 5°C
27/03/19 13:50 EGYH 271350Z 31010KT 9999 SCT025 BKN045 11/04 Q1035 BLU NW (310°) 11.5mph 11°C 4°C
27/03/19 12:50 EGYH 271250Z 32006KT 9999 FEW025 BKN045 11/05 Q1035 BLU NW (320°) 6.9mph 11°C 5°C
27/03/19 11:50 EGYH 271150Z 31009KT 9999 BKN045 10/06 Q1035 BLU NW (310°) 10.4mph 10°C 6°C
27/03/19 10:50 EGYH 271050Z 32010KT 9999 BKN040 10/06 Q1035 BLU NW (320°) 11.5mph 10°C 6°C
27/03/19 09:50 EGYH 270950Z 32010KT 9999 BKN035 10/06 Q1034 BLU NW (320°) 11.5mph 10°C 6°C
27/03/19 08:50 EGYH 270850Z 31012KT 9999 BKN040 09/06 Q1034 BLU NW (310°) 13.8mph 9°C 6°C
26/03/19 16:50 EGYH 261650Z 26005KT 9999 FEW040 11/05 Q1031 BLU W (260°) 5.8mph 11°C 5°C
26/03/19 15:50 EGYH 261550Z 28009KT 9999 SCT040 11/05 Q1031 BLU W (280°) 10.4mph 11°C 5°C
26/03/19 14:50 EGYH 261450Z 29012KT 9999 SCT040 11/05 Q1032 BLU WNW (290°) 13.8mph 11°C 5°C
26/03/19 13:50 EGYH 261350Z 31007KT 9999 FEW015 BKN040 11/04 Q1032 BLU NW (310°) 8.1mph 11°C 4°C
26/03/19 12:50 EGYH 261250Z 33007KT 9999 FEW015 BKN040 10/04 Q1033 BLU NNW (330°) 8.1mph 10°C 4°C
26/03/19 11:50 EGYH 261150Z 32009KT 9999 FEW015 BKN040 09/04 Q1033 BLU NW (320°) 10.4mph 9°C 4°C
26/03/19 10:50 EGYH 261050Z 31010KT 9999 FEW015 BKN040 09/04 Q1033 BLU NW (310°) 11.5mph 9°C 4°C
25/03/19 19:50 EGYH 251950Z 06012KT CAVOK 05/03 Q1034 BLU ENE (60°) 13.8mph 5°C 3°C
25/03/19 18:50 EGYH 251850Z 06010KT CAVOK 06/02 Q1034 BLU ENE (60°) 11.5mph 6°C 2°C
25/03/19 17:50 EGYH 251750Z 08012KT CAVOK 08/03 Q1033 BLU E (80°) 13.8mph 8°C 3°C
25/03/19 16:50 EGYH 251650Z 04014KT CAVOK 10/02 Q1033 BLU NE (40°) 16.1mph 10°C 2°C
25/03/19 15:50 EGYH 251550Z 03014KT CAVOK 11/02 Q1033 BLU NNE (30°) 16.1mph 11°C 2°C
25/03/19 14:50 EGYH 251450Z 03017KT 9999 FEW040 11/02 Q1032 BLU NNE (30°) 19.6mph 11°C 2°C
25/03/19 13:50 EGYH 251350Z 03015KT 9999 SCT040 11/03 Q1032 BLU NNE (30°) 17.3mph 11°C 3°C
25/03/19 12:50 EGYH 251250Z 02019KT 9999 SCT040 11/03 Q1032 BLU NNE (20°) 21.9mph 11°C 3°C
25/03/19 11:50 EGYH 251150Z 02018KT 9999 SCT035 11/03 Q1032 BLU NNE (20°) 20.7mph 11°C 3°C